createdAt,value
2024-03-03T00:02:31.532Z,100.00
2024-03-03T00:05:28.408Z,100.00
2024-03-03T00:08:25.306Z,100.00
2024-03-03T00:11:22.211Z,100.00
2024-03-03T00:14:19.196Z,100.00
2024-03-03T00:17:16.186Z,100.00
2024-03-03T00:20:13.102Z,100.00
2024-03-03T00:23:09.966Z,100.00
2024-03-03T00:26:06.794Z,100.00
2024-03-03T00:29:03.718Z,100.00
2024-03-03T00:32:00.638Z,100.00
2024-03-03T00:34:57.801Z,100.00
2024-03-03T00:37:54.760Z,100.00
2024-03-03T00:40:51.596Z,100.00
2024-03-03T00:43:48.471Z,100.00
2024-03-03T00:46:48.051Z,100.00
2024-03-03T00:49:46.205Z,100.00
2024-03-03T00:52:44.285Z,100.00
2024-03-03T00:55:47.795Z,100.00
2024-03-03T00:58:44.692Z,100.00
2024-03-03T01:01:41.537Z,100.00
2024-03-03T01:04:38.391Z,100.00
2024-03-03T01:07:35.316Z,100.00
2024-03-03T01:10:32.211Z,100.00
2024-03-03T01:13:29.216Z,100.00
2024-03-03T01:16:26.103Z,100.00
2024-03-03T01:19:23.369Z,100.00
2024-03-03T01:22:20.403Z,100.00
2024-03-03T01:25:17.611Z,100.00
2024-03-03T01:28:14.655Z,100.00
2024-03-03T01:31:13.684Z,100.00
2024-03-03T01:34:10.813Z,100.00
2024-03-03T01:37:07.695Z,100.00
2024-03-03T01:40:05.672Z,100.00
2024-03-03T01:43:05.734Z,100.00
2024-03-03T01:46:03.289Z,100.00
2024-03-03T01:49:00.330Z,100.00
2024-03-03T01:51:57.380Z,100.00
2024-03-03T01:54:54.537Z,100.00
2024-03-03T01:57:54.200Z,100.00
2024-03-03T02:00:51.619Z,100.00
2024-03-03T02:03:51.081Z,100.00
2024-03-03T02:06:48.176Z,100.00
2024-03-03T02:09:45.691Z,100.00
2024-03-03T02:12:46.708Z,100.00
2024-03-03T02:15:43.669Z,100.00
2024-03-03T02:18:40.558Z,100.00
2024-03-03T02:21:37.552Z,100.00
2024-03-03T02:24:34.484Z,100.00
2024-03-03T02:27:34.344Z,100.00
2024-03-03T02:30:31.208Z,100.00
2024-03-03T02:33:28.048Z,100.00
2024-03-03T02:36:25.988Z,100.00
2024-03-03T02:39:22.828Z,100.00
2024-03-03T02:42:19.673Z,100.00
2024-03-03T02:45:16.686Z,100.00
2024-03-03T02:48:13.703Z,100.00
2024-03-03T02:51:10.848Z,100.00
2024-03-03T02:54:07.753Z,100.00
2024-03-03T02:57:04.895Z,100.00
2024-03-03T03:00:02.325Z,100.00
2024-03-03T03:02:59.262Z,100.00
2024-03-03T03:05:56.162Z,100.00
2024-03-03T03:08:53.038Z,100.00
2024-03-03T03:11:50.331Z,100.00
2024-03-03T03:14:47.183Z,100.00
2024-03-03T03:17:44.594Z,100.00
2024-03-03T03:20:42.056Z,100.00
2024-03-03T03:23:38.962Z,100.00
2024-03-03T03:26:35.828Z,100.00
2024-03-03T03:29:32.698Z,100.00
2024-03-03T03:32:29.585Z,100.00
2024-03-03T03:35:26.823Z,100.00
2024-03-03T03:38:23.738Z,100.00
2024-03-03T03:41:21.188Z,100.00
2024-03-03T03:44:20.241Z,100.00
2024-03-03T03:47:17.170Z,100.00
2024-03-03T03:50:14.087Z,100.00
2024-03-03T03:53:10.930Z,100.00
2024-03-03T03:56:07.936Z,100.00
2024-03-03T03:59:05.027Z,100.00
2024-03-03T04:02:05.166Z,100.00
2024-03-03T04:05:02.221Z,100.00
2024-03-03T04:07:59.072Z,100.00
2024-03-03T04:10:58.770Z,100.00
2024-03-03T04:13:55.654Z,100.00
2024-03-03T04:16:52.519Z,100.00
2024-03-03T04:19:49.393Z,100.00
2024-03-03T04:22:46.379Z,100.00
2024-03-03T04:25:43.290Z,100.00
2024-03-03T04:28:40.138Z,100.00
2024-03-03T04:31:44.340Z,100.00
2024-03-03T04:34:41.785Z,100.00
2024-03-03T04:37:38.658Z,100.00
2024-03-03T04:40:35.542Z,100.00
2024-03-03T04:43:32.398Z,100.00
2024-03-03T04:46:29.305Z,100.00
2024-03-03T04:49:26.279Z,100.00
2024-03-03T04:52:23.193Z,100.00
2024-03-03T04:55:20.167Z,100.00
2024-03-03T04:58:17.124Z,100.00
2024-03-03T05:01:14.223Z,100.00
2024-03-03T05:04:11.464Z,100.00
2024-03-03T05:07:08.470Z,100.00
2024-03-03T05:10:05.943Z,100.00
2024-03-03T05:13:03.590Z,100.00
2024-03-03T05:16:00.570Z,100.00
2024-03-03T05:18:57.728Z,100.00
2024-03-03T05:21:54.751Z,100.00
2024-03-03T05:24:51.688Z,100.00
2024-03-03T05:27:48.632Z,100.00
2024-03-03T05:30:45.690Z,100.00
2024-03-03T05:33:42.606Z,100.00
2024-03-03T05:36:43.682Z,100.00
2024-03-03T05:39:41.643Z,100.00
2024-03-03T05:42:38.719Z,100.00
2024-03-03T05:45:35.628Z,100.00
2024-03-03T05:48:32.547Z,100.00
2024-03-03T05:51:29.713Z,100.00
2024-03-03T05:54:26.567Z,100.00
2024-03-03T05:57:23.495Z,100.00
2024-03-03T06:00:20.452Z,100.00
2024-03-03T06:03:17.311Z,100.00
2024-03-03T06:06:15.211Z,100.00
2024-03-03T06:09:13.666Z,100.00
2024-03-03T06:12:10.744Z,100.00
2024-03-03T06:15:07.860Z,100.00
2024-03-03T06:18:05.396Z,100.00
2024-03-03T06:21:02.326Z,100.00
2024-03-03T06:23:59.597Z,100.00
2024-03-03T06:26:56.538Z,100.00
2024-03-03T06:29:53.424Z,100.00
2024-03-03T06:32:50.407Z,100.00
2024-03-03T06:35:47.955Z,100.00
2024-03-03T06:38:45.369Z,100.00
2024-03-03T06:41:45.111Z,100.00
2024-03-03T06:44:43.004Z,100.00
2024-03-03T06:47:39.980Z,100.00
2024-03-03T06:50:36.858Z,100.00
2024-03-03T06:53:40.235Z,100.00
2024-03-03T06:56:37.106Z,100.00
2024-03-03T06:59:35.303Z,100.00
2024-03-03T07:02:50.610Z,100.00
2024-03-03T07:05:47.468Z,100.00
2024-03-03T07:08:44.321Z,100.00
2024-03-03T07:11:41.226Z,100.00
2024-03-03T07:14:43.319Z,100.00
2024-03-03T07:17:40.328Z,100.00
2024-03-03T07:20:37.221Z,100.00
2024-03-03T07:23:34.070Z,100.00
2024-03-03T07:26:32.149Z,100.00
2024-03-03T07:29:29.064Z,100.00
2024-03-03T07:32:29.835Z,100.00
2024-03-03T07:35:26.952Z,100.00
2024-03-03T07:38:23.828Z,100.00
2024-03-03T07:41:20.768Z,100.00
2024-03-03T07:44:17.746Z,100.00
2024-03-03T07:47:14.611Z,100.00
2024-03-03T07:50:11.558Z,100.00
2024-03-03T07:53:08.406Z,100.00
2024-03-03T07:56:05.810Z,100.00
2024-03-03T07:59:06.669Z,100.00
2024-03-03T08:02:03.941Z,100.00
2024-03-03T08:05:01.074Z,100.00
2024-03-03T08:07:58.012Z,100.00
2024-03-03T08:10:54.894Z,100.00
2024-03-03T08:13:51.744Z,100.00
2024-03-03T08:16:48.591Z,100.00
2024-03-03T08:19:45.490Z,100.00
2024-03-03T08:22:43.549Z,100.00
2024-03-03T08:25:40.423Z,100.00
2024-03-03T08:28:37.286Z,100.00
2024-03-03T08:31:36.686Z,100.00
2024-03-03T08:34:33.690Z,100.00
2024-03-03T08:37:32.460Z,100.00
2024-03-03T08:40:30.694Z,100.00
2024-03-03T08:43:27.665Z,100.00
2024-03-03T08:46:24.634Z,100.00
2024-03-03T08:49:21.727Z,100.00
2024-03-03T08:52:18.805Z,100.00
2024-03-03T08:55:15.839Z,100.00
2024-03-03T08:58:12.969Z,100.00
2024-03-03T09:01:15.441Z,100.00
2024-03-03T09:04:13.840Z,100.00
2024-03-03T09:07:11.139Z,100.00
2024-03-03T09:10:08.546Z,100.00
2024-03-03T09:13:05.665Z,100.00
2024-03-03T09:16:03.493Z,100.00
2024-03-03T09:19:00.610Z,100.00
2024-03-03T09:21:57.568Z,100.00
2024-03-03T09:24:54.631Z,93.84
2024-03-03T09:27:51.657Z,100.00
2024-03-03T09:30:49.072Z,100.00
2024-03-03T09:33:47.581Z,96.51
2024-03-03T09:36:46.549Z,100.00
2024-03-03T09:39:44.365Z,89.71
2024-03-03T09:42:46.507Z,100.00
2024-03-03T09:45:49.214Z,78.12
2024-03-03T09:48:47.193Z,93.89
2024-03-03T09:51:49.347Z,94.32
2024-03-03T09:54:47.063Z,94.82
2024-03-03T09:57:44.387Z,84.90
2024-03-03T10:00:42.175Z,85.55
2024-03-03T10:03:42.412Z,76.58
2024-03-03T10:06:40.148Z,90.10
2024-03-03T10:09:39.846Z,69.91
2024-03-03T10:12:38.286Z,62.49
2024-03-03T10:15:35.608Z,62.85
2024-03-03T10:18:32.692Z,72.38
2024-03-03T10:21:40.163Z,68.97
2024-03-03T10:24:37.151Z,64.46
2024-03-03T10:27:34.052Z,57.72
2024-03-03T10:30:30.941Z,66.52
2024-03-03T10:33:27.795Z,59.21
2024-03-03T10:36:24.701Z,61.51
2024-03-03T10:39:21.557Z,58.47
2024-03-03T10:42:19.053Z,58.90
2024-03-03T10:45:16.107Z,52.96
2024-03-03T10:48:12.992Z,55.95
2024-03-03T10:51:09.846Z,57.66
2024-03-03T10:54:09.229Z,58.94
2024-03-03T10:57:07.447Z,60.25
2024-03-03T11:00:15.404Z,57.83
2024-03-03T11:03:13.678Z,54.80
2024-03-03T11:06:11.016Z,60.07
2024-03-03T11:09:10.315Z,54.56
2024-03-03T11:12:14.073Z,52.61
2024-03-03T11:15:18.507Z,59.89
2024-03-03T11:18:22.458Z,62.74
2024-03-03T11:21:30.217Z,57.49
2024-03-03T11:24:36.340Z,52.04
2024-03-03T11:27:41.805Z,59.47
2024-03-03T11:30:38.690Z,52.62
2024-03-03T11:33:36.360Z,67.48
2024-03-03T11:36:33.806Z,53.04
2024-03-03T11:39:30.704Z,59.58
2024-03-03T11:42:35.920Z,51.45
2024-03-03T11:45:47.232Z,52.07
2024-03-03T11:48:45.768Z,50.06
2024-03-03T11:51:42.742Z,48.73
2024-03-03T11:54:43.141Z,52.32
2024-03-03T11:57:42.020Z,50.02
2024-03-03T12:00:39.400Z,47.53
2024-03-03T12:03:37.229Z,40.60
2024-03-03T12:06:34.106Z,48.55
2024-03-03T12:09:33.442Z,45.43
2024-03-03T12:12:30.316Z,64.02
2024-03-03T12:15:29.779Z,43.74
2024-03-03T12:18:27.478Z,62.17
2024-03-03T12:21:25.472Z,47.32
2024-03-03T12:24:22.367Z,42.75
2024-03-03T12:27:19.254Z,43.80
2024-03-03T12:30:40.436Z,43.54
2024-03-03T12:33:41.568Z,42.47
2024-03-03T12:36:38.560Z,37.75
2024-03-03T12:39:35.444Z,36.85
2024-03-03T12:42:32.637Z,40.31
2024-03-03T12:45:29.561Z,40.99
2024-03-03T12:48:28.014Z,42.21
2024-03-03T12:51:25.298Z,41.10
2024-03-03T12:54:22.196Z,39.43
2024-03-03T12:57:23.490Z,44.44
2024-03-03T13:00:20.496Z,41.77
2024-03-03T13:03:18.691Z,38.82
2024-03-03T13:06:17.990Z,37.87
2024-03-03T13:09:15.746Z,40.98
2024-03-03T13:12:12.708Z,42.49
2024-03-03T13:15:12.126Z,37.44
2024-03-03T13:18:16.855Z,36.68
2024-03-03T13:21:17.569Z,33.42
2024-03-03T13:24:15.068Z,34.54
2024-03-03T13:27:11.978Z,35.83
2024-03-03T13:30:14.688Z,41.91
2024-03-03T13:33:11.652Z,32.22
2024-03-03T13:36:13.846Z,37.46
2024-03-03T13:39:12.060Z,33.44
2024-03-03T13:42:10.789Z,39.26
2024-03-03T13:45:10.890Z,38.17
2024-03-03T13:48:13.994Z,36.94
2024-03-03T13:51:10.922Z,40.06
2024-03-03T13:54:08.166Z,38.83
2024-03-03T13:57:06.028Z,43.83
2024-03-03T14:00:10.212Z,43.78
2024-03-03T14:03:07.826Z,41.99
2024-03-03T14:06:04.913Z,44.15
2024-03-03T14:09:07.172Z,44.50
2024-03-03T14:12:04.591Z,40.70
2024-03-03T14:15:01.491Z,40.27
2024-03-03T14:17:59.042Z,37.95
2024-03-03T14:20:56.039Z,38.46
2024-03-03T14:23:53.506Z,40.58
2024-03-03T14:26:50.414Z,44.55
2024-03-03T14:29:47.344Z,54.22
2024-03-03T14:32:44.344Z,62.17
2024-03-03T14:35:41.252Z,60.20
2024-03-03T14:38:38.199Z,61.54
2024-03-03T14:41:35.067Z,71.88
2024-03-03T14:44:31.923Z,70.23
2024-03-03T14:47:28.897Z,69.03
2024-03-03T14:50:25.768Z,78.23
2024-03-03T14:53:22.620Z,75.70
2024-03-03T14:56:19.763Z,77.50
2024-03-03T14:59:16.737Z,80.52
2024-03-03T15:02:13.749Z,82.31
2024-03-03T15:05:10.649Z,86.41
2024-03-03T15:08:07.977Z,84.40
2024-03-03T15:11:05.201Z,86.56
2024-03-03T15:14:02.766Z,86.21
2024-03-03T15:17:02.321Z,85.78
2024-03-03T15:19:59.781Z,87.38
2024-03-03T15:22:56.698Z,90.93
2024-03-03T15:25:53.574Z,88.54
2024-03-03T15:28:50.547Z,90.09
2024-03-03T15:31:48.419Z,88.79
2024-03-03T15:34:45.298Z,92.41
2024-03-03T15:37:42.264Z,90.29
2024-03-03T15:40:40.206Z,89.59
2024-03-03T15:43:37.184Z,92.19
2024-03-03T15:46:35.044Z,93.45
2024-03-03T15:49:32.130Z,91.05
2024-03-03T15:52:29.136Z,97.64
2024-03-03T15:55:26.088Z,98.04
2024-03-03T15:58:22.977Z,91.54
2024-03-03T16:01:20.095Z,91.69
2024-03-03T16:04:17.057Z,90.73
2024-03-03T16:07:14.658Z,91.99
2024-03-03T16:10:12.390Z,95.16
2024-03-03T16:13:09.333Z,94.75
2024-03-03T16:16:06.811Z,95.55
2024-03-03T16:19:03.984Z,100.00
2024-03-03T16:22:00.962Z,98.55
2024-03-03T16:24:57.886Z,100.00
2024-03-03T16:27:55.159Z,99.33
2024-03-03T16:30:52.146Z,100.00
2024-03-03T16:33:49.122Z,100.00
2024-03-03T16:36:46.163Z,100.00
2024-03-03T16:39:43.054Z,100.00
2024-03-03T16:43:00.030Z,100.00
2024-03-03T16:45:58.907Z,100.00
2024-03-03T16:48:58.040Z,100.00
2024-03-03T16:51:58.555Z,100.00
2024-03-03T16:54:55.980Z,100.00
2024-03-03T16:57:58.885Z,100.00
2024-03-03T17:00:55.925Z,100.00
2024-03-03T17:03:52.862Z,100.00
2024-03-03T17:06:50.090Z,100.00
2024-03-03T17:09:47.170Z,100.00
2024-03-03T17:12:44.350Z,100.00
2024-03-03T17:15:41.232Z,100.00
2024-03-03T17:18:38.137Z,100.00
2024-03-03T17:21:35.038Z,100.00
2024-03-03T17:24:32.007Z,100.00
2024-03-03T17:27:28.852Z,100.00
2024-03-03T17:30:25.793Z,100.00
2024-03-03T17:33:22.778Z,100.00
2024-03-03T17:36:21.978Z,100.00
2024-03-03T17:39:20.263Z,100.00
2024-03-03T17:42:20.308Z,100.00
2024-03-03T17:45:17.180Z,100.00
2024-03-03T17:48:16.712Z,100.00
2024-03-03T17:51:13.943Z,100.00
2024-03-03T17:54:11.369Z,100.00
2024-03-03T17:57:08.266Z,100.00
2024-03-03T18:00:06.263Z,100.00
2024-03-03T18:03:03.422Z,100.00
2024-03-03T18:06:00.296Z,100.00
2024-03-03T18:08:57.458Z,100.00
2024-03-03T18:11:55.397Z,100.00
2024-03-03T18:14:54.171Z,100.00
2024-03-03T18:17:51.217Z,100.00
2024-03-03T18:20:48.230Z,100.00
2024-03-03T18:23:45.386Z,100.00
2024-03-03T18:26:42.257Z,100.00
2024-03-03T18:29:39.233Z,100.00
2024-03-03T18:32:36.447Z,100.00
2024-03-03T18:35:33.372Z,100.00
2024-03-03T18:38:30.270Z,100.00
2024-03-03T18:41:27.310Z,100.00
2024-03-03T18:44:24.639Z,100.00
2024-03-03T18:47:22.756Z,100.00
2024-03-03T18:50:23.859Z,100.00
2024-03-03T18:53:22.406Z,100.00
2024-03-03T18:56:19.533Z,100.00
2024-03-03T18:59:16.987Z,100.00
2024-03-03T19:02:14.050Z,100.00
2024-03-03T19:05:12.478Z,100.00
2024-03-03T19:08:09.532Z,100.00
2024-03-03T19:11:06.555Z,100.00
2024-03-03T19:14:03.712Z,100.00
2024-03-03T19:17:00.560Z,100.00
2024-03-03T19:19:58.252Z,100.00
2024-03-03T19:22:59.426Z,100.00
2024-03-03T19:25:56.917Z,100.00
2024-03-03T19:28:54.738Z,100.00
2024-03-03T19:31:51.704Z,100.00
2024-03-03T19:34:48.792Z,100.00
2024-03-03T19:37:48.122Z,100.00
2024-03-03T19:40:45.425Z,100.00
2024-03-03T19:43:42.797Z,100.00
2024-03-03T19:46:42.827Z,100.00
2024-03-03T19:49:39.820Z,100.00
2024-03-03T19:52:36.951Z,100.00
2024-03-03T19:55:33.925Z,100.00
2024-03-03T19:58:30.850Z,100.00
2024-03-03T20:01:27.987Z,100.00
2024-03-03T20:04:24.936Z,100.00
2024-03-03T20:07:21.851Z,100.00
2024-03-03T20:10:19.065Z,100.00
2024-03-03T20:13:16.519Z,100.00
2024-03-03T20:16:13.527Z,100.00
2024-03-03T20:19:10.420Z,100.00
2024-03-03T20:22:07.381Z,100.00
2024-03-03T20:25:08.210Z,100.00
2024-03-03T20:28:06.702Z,100.00
2024-03-03T20:31:05.052Z,100.00
2024-03-03T20:34:02.486Z,100.00
2024-03-03T20:36:59.335Z,100.00
2024-03-03T20:39:56.248Z,100.00
2024-03-03T20:42:53.197Z,100.00
2024-03-03T20:45:51.133Z,100.00
2024-03-03T20:48:48.002Z,100.00
2024-03-03T20:51:45.033Z,100.00
2024-03-03T20:54:41.973Z,100.00
2024-03-03T20:57:39.375Z,100.00
2024-03-03T21:00:36.300Z,100.00
2024-03-03T21:03:33.243Z,100.00
2024-03-03T21:06:30.119Z,100.00
2024-03-03T21:09:27.063Z,100.00
2024-03-03T21:12:24.020Z,100.00
2024-03-03T21:15:20.879Z,100.00
2024-03-03T21:18:17.772Z,100.00
2024-03-03T21:21:14.757Z,100.00
2024-03-03T21:24:11.705Z,100.00
2024-03-03T21:27:08.963Z,100.00
2024-03-03T21:30:06.819Z,100.00
2024-03-03T21:33:04.116Z,100.00
2024-03-03T21:36:01.098Z,100.00
2024-03-03T21:38:58.399Z,100.00
2024-03-03T21:41:56.171Z,100.00
2024-03-03T21:44:53.009Z,100.00
2024-03-03T21:47:49.905Z,100.00
2024-03-03T21:50:46.957Z,100.00
2024-03-03T21:53:43.875Z,100.00
2024-03-03T21:56:40.783Z,100.00
2024-03-03T21:59:37.633Z,100.00
2024-03-03T22:02:34.628Z,100.00
2024-03-03T22:05:31.583Z,100.00
2024-03-03T22:08:28.501Z,100.00
2024-03-03T22:11:25.510Z,100.00
2024-03-03T22:14:22.451Z,100.00
2024-03-03T22:17:21.253Z,100.00
2024-03-03T22:20:18.163Z,100.00
2024-03-03T22:23:15.156Z,100.00
2024-03-03T22:26:12.046Z,100.00
2024-03-03T22:29:08.977Z,100.00
2024-03-03T22:32:06.156Z,100.00
2024-03-03T22:35:03.713Z,100.00
2024-03-03T22:38:00.603Z,100.00
2024-03-03T22:40:59.171Z,100.00
2024-03-03T22:43:56.033Z,100.00
2024-03-03T22:46:55.242Z,100.00
2024-03-03T22:49:53.957Z,100.00
2024-03-03T22:52:53.761Z,100.00
2024-03-03T22:55:50.629Z,100.00
2024-03-03T22:58:50.469Z,100.00
2024-03-03T23:01:49.846Z,100.00
2024-03-03T23:04:49.301Z,100.00
2024-03-03T23:07:47.733Z,100.00
2024-03-03T23:10:44.799Z,100.00
2024-03-03T23:13:41.729Z,100.00
2024-03-03T23:16:39.274Z,100.00
2024-03-03T23:19:36.669Z,100.00
2024-03-03T23:22:33.615Z,100.00
2024-03-03T23:25:30.974Z,100.00
2024-03-03T23:28:27.980Z,100.00
2024-03-03T23:31:25.212Z,100.00
2024-03-03T23:34:22.091Z,100.00
2024-03-03T23:37:19.836Z,100.00
2024-03-03T23:40:16.869Z,100.00
2024-03-03T23:43:13.764Z,100.00
2024-03-03T23:46:10.639Z,100.00
2024-03-03T23:49:07.599Z,100.00
2024-03-03T23:52:05.207Z,100.00
2024-03-03T23:55:02.458Z,100.00
2024-03-03T23:57:59.345Z,100.00
